createdAt,value
2018-09-09T00:00:59.414Z,19.30
2018-09-09T00:03:28.576Z,19.10
2018-09-09T00:05:57.380Z,19.00
2018-09-09T00:08:26.499Z,18.90
2018-09-09T00:10:55.592Z,18.90
2018-09-09T00:13:24.700Z,18.90
2018-09-09T00:15:53.824Z,19.00
2018-09-09T00:18:22.607Z,19.10
2018-09-09T00:20:51.391Z,19.10
2018-09-09T00:23:20.641Z,18.80
2018-09-09T00:25:49.656Z,18.80
2018-09-09T00:28:18.461Z,18.90
2018-09-09T00:30:47.668Z,18.90
2018-09-09T00:33:16.459Z,18.90
2018-09-09T00:35:45.603Z,18.80
2018-09-09T00:38:14.407Z,18.70
2018-09-09T00:40:43.506Z,18.60
2018-09-09T00:43:12.620Z,18.40
2018-09-09T00:45:41.444Z,18.20
2018-09-09T00:48:10.508Z,18.20
2018-09-09T00:50:44.683Z,18.10
2018-09-09T00:53:18.867Z,18.10
2018-09-09T00:55:48.023Z,18.20
2018-09-09T00:58:17.205Z,18.30
2018-09-09T01:00:51.336Z,18.30
2018-09-09T01:03:20.475Z,18.40
2018-09-09T01:05:49.654Z,18.40
2018-09-09T01:08:18.815Z,18.40
2018-09-09T01:10:47.795Z,18.30
2018-09-09T01:13:16.585Z,18.10
2018-09-09T01:15:45.585Z,18.10
2018-09-09T01:18:14.563Z,18.10
2018-09-09T01:20:43.581Z,18.20
2018-09-09T01:23:12.383Z,18.20
2018-09-09T01:25:41.190Z,18.20
2018-09-09T01:28:10.340Z,18.20
2018-09-09T01:30:39.418Z,18.10
2018-09-09T01:33:08.507Z,18.00
2018-09-09T01:35:37.749Z,18.00
2018-09-09T01:38:06.706Z,17.90
2018-09-09T01:40:35.815Z,18.00
2018-09-09T01:43:05.017Z,17.90
2018-09-09T01:45:34.264Z,17.90
2018-09-09T01:48:03.385Z,17.90
2018-09-09T01:50:32.494Z,17.80
2018-09-09T01:53:01.798Z,17.60
2018-09-09T01:55:30.813Z,17.70
2018-09-09T01:57:59.817Z,17.80
2018-09-09T02:00:28.744Z,17.80
2018-09-09T02:02:58.086Z,17.80
2018-09-09T02:05:27.266Z,17.70
2018-09-09T02:07:56.245Z,17.70
2018-09-09T02:10:25.028Z,17.70
2018-09-09T02:12:54.017Z,17.70
2018-09-09T02:15:23.033Z,17.70
2018-09-09T02:17:52.122Z,17.70
2018-09-09T02:20:21.339Z,17.70
2018-09-09T02:22:50.416Z,17.60
2018-09-09T02:25:19.426Z,17.60
2018-09-09T02:27:48.635Z,17.50
2018-09-09T02:30:17.697Z,17.50
2018-09-09T02:32:46.808Z,17.50
2018-09-09T02:35:15.808Z,17.50
2018-09-09T02:37:44.864Z,17.50
2018-09-09T02:40:14.004Z,17.50
2018-09-09T02:42:43.164Z,17.40
2018-09-09T02:45:12.273Z,17.40
2018-09-09T02:47:41.247Z,17.20
2018-09-09T02:50:10.248Z,17.20
2018-09-09T02:52:39.397Z,17.30
2018-09-09T02:55:08.182Z,17.30
2018-09-09T02:57:37.290Z,17.30
2018-09-09T03:00:06.899Z,17.20
2018-09-09T03:02:35.941Z,17.10
2018-09-09T03:05:05.059Z,17.10
2018-09-09T03:07:34.221Z,17.00
2018-09-09T03:10:03.207Z,17.00
2018-09-09T03:12:32.293Z,17.00
2018-09-09T03:15:01.304Z,17.00
2018-09-09T03:17:30.417Z,16.90
2018-09-09T03:19:59.589Z,16.90
2018-09-09T03:22:29.081Z,16.90
2018-09-09T03:24:58.171Z,16.70
2018-09-09T03:27:27.367Z,16.70
2018-09-09T03:29:56.404Z,16.60
2018-09-09T03:32:25.463Z,16.60
2018-09-09T03:34:54.457Z,16.60
2018-09-09T03:37:23.477Z,16.50
2018-09-09T03:39:52.668Z,16.60
2018-09-09T03:42:21.646Z,16.60
2018-09-09T03:44:50.741Z,16.50
2018-09-09T03:47:19.844Z,16.50
2018-09-09T03:49:48.850Z,16.50
2018-09-09T03:52:17.904Z,16.40
2018-09-09T03:54:47.064Z,16.40
2018-09-09T03:57:16.091Z,16.40
2018-09-09T03:59:45.320Z,16.30
2018-09-09T04:02:14.403Z,16.30
2018-09-09T04:04:43.365Z,16.20
2018-09-09T04:07:12.443Z,16.10
2018-09-09T04:09:41.585Z,16.10
2018-09-09T04:12:10.693Z,16.00
2018-09-09T04:14:39.780Z,16.00
2018-09-09T04:17:08.861Z,15.80
2018-09-09T04:19:37.912Z,15.80
2018-09-09T04:22:07.071Z,15.70
2018-09-09T04:24:36.040Z,15.70
2018-09-09T04:27:05.145Z,15.60
2018-09-09T04:29:34.093Z,15.70
2018-09-09T04:32:03.282Z,15.60
2018-09-09T04:34:32.441Z,15.60
2018-09-09T04:37:01.233Z,15.50
2018-09-09T04:39:30.201Z,15.60
2018-09-09T04:41:59.338Z,15.60
2018-09-09T04:44:28.344Z,15.50
2018-09-09T04:46:57.510Z,15.60
2018-09-09T04:49:26.486Z,15.50
2018-09-09T04:51:55.495Z,15.50
2018-09-09T04:54:24.584Z,15.50
2018-09-09T04:56:53.613Z,15.40
2018-09-09T04:59:22.768Z,15.40
2018-09-09T05:01:51.606Z,15.40
2018-09-09T05:04:20.753Z,15.40
2018-09-09T05:06:49.945Z,15.30
2018-09-09T05:09:19.185Z,15.30
2018-09-09T05:11:48.223Z,15.10
2018-09-09T05:14:17.345Z,15.10
2018-09-09T05:16:46.422Z,15.10
2018-09-09T05:19:15.626Z,15.00
2018-09-09T05:21:44.865Z,15.00
2018-09-09T05:24:14.139Z,14.90
2018-09-09T05:26:43.320Z,14.90
2018-09-09T05:29:12.409Z,14.90
2018-09-09T05:31:41.583Z,14.90
2018-09-09T05:34:10.674Z,14.90
2018-09-09T05:36:39.704Z,14.90
2018-09-09T05:39:10.709Z,14.80
2018-09-09T05:41:39.975Z,14.70
2018-09-09T05:44:09.121Z,14.70
2018-09-09T05:46:38.353Z,14.60
2018-09-09T05:49:07.418Z,14.50
2018-09-09T05:51:36.512Z,14.40
2018-09-09T05:54:05.608Z,14.40
2018-09-09T05:56:34.723Z,14.40
2018-09-09T05:59:03.783Z,14.40
2018-09-09T06:01:32.841Z,14.40
2018-09-09T06:04:01.927Z,14.40
2018-09-09T06:06:30.891Z,14.40
2018-09-09T06:08:59.974Z,14.40
2018-09-09T06:11:29.220Z,14.40
2018-09-09T06:13:58.176Z,14.50
2018-09-09T06:16:27.255Z,14.50
2018-09-09T06:18:56.113Z,14.60
2018-09-09T06:21:25.148Z,14.60
2018-09-09T06:23:54.271Z,14.70
2018-09-09T06:26:23.347Z,14.70
2018-09-09T06:28:52.423Z,14.70
2018-09-09T06:31:21.524Z,14.70
2018-09-09T06:33:50.997Z,14.80
2018-09-09T06:36:20.082Z,14.80
2018-09-09T06:38:49.335Z,14.90
2018-09-09T06:41:18.531Z,14.90
2018-09-09T06:45:53.932Z,15.00
2018-09-09T06:49:32.865Z,15.00
2018-09-09T06:52:02.012Z,15.10
2018-09-09T06:54:31.195Z,15.20
2018-09-09T06:57:00.324Z,15.20
2018-09-09T06:59:29.496Z,15.30
2018-09-09T07:01:58.589Z,15.30
2018-09-09T07:04:27.677Z,15.30
2018-09-09T07:06:56.448Z,15.40
2018-09-09T07:09:25.318Z,15.40
2018-09-09T07:11:54.439Z,15.50
2018-09-09T07:14:23.550Z,15.50
2018-09-09T07:16:52.637Z,15.50
2018-09-09T07:19:21.837Z,15.60
2018-09-09T07:21:51.918Z,15.60
2018-09-09T07:24:20.699Z,15.70
2018-09-09T07:26:49.847Z,15.80
2018-09-09T07:29:18.832Z,15.80
2018-09-09T07:31:47.922Z,15.90
2018-09-09T07:34:17.173Z,15.90
2018-09-09T07:36:46.042Z,16.00
2018-09-09T07:39:14.837Z,16.10
2018-09-09T07:41:43.899Z,16.10
2018-09-09T07:44:12.672Z,16.20
2018-09-09T07:46:41.705Z,16.20
2018-09-09T07:49:10.855Z,16.30
2018-09-09T07:51:39.962Z,16.30
2018-09-09T07:54:09.212Z,16.40
2018-09-09T07:56:38.341Z,16.50
2018-09-09T07:59:07.382Z,16.60
2018-09-09T08:01:36.284Z,16.60
2018-09-09T08:04:05.555Z,16.70
2018-09-09T08:06:34.841Z,16.70
2018-09-09T08:09:04.229Z,16.80
2018-09-09T08:11:37.804Z,16.80
2018-09-09T08:14:08.123Z,16.90
2018-09-09T08:16:37.493Z,17.00
2018-09-09T08:19:06.773Z,17.10
2018-09-09T08:21:36.003Z,17.10
2018-09-09T08:24:04.923Z,17.20
2018-09-09T08:26:34.060Z,17.30
2018-09-09T08:29:03.314Z,17.40
2018-09-09T08:31:32.462Z,17.40
2018-09-09T08:34:01.545Z,17.50
2018-09-09T08:36:30.663Z,17.50
2018-09-09T08:38:59.706Z,17.60
2018-09-09T08:41:28.961Z,17.70
2018-09-09T08:43:58.146Z,17.70
2018-09-09T08:46:27.211Z,17.80
2018-09-09T08:48:56.215Z,17.80
2018-09-09T08:51:25.319Z,17.90
2018-09-09T08:53:54.404Z,18.00
2018-09-09T08:56:23.516Z,18.10
2018-09-09T08:58:52.399Z,18.20
2018-09-09T09:01:21.691Z,18.20
2018-09-09T09:03:50.684Z,18.30
2018-09-09T09:06:19.791Z,18.30
2018-09-09T09:08:48.593Z,18.40
2018-09-09T09:11:17.440Z,18.40
2018-09-09T09:13:46.555Z,18.50
2018-09-09T09:16:15.382Z,18.60
2018-09-09T09:18:44.638Z,18.60
2018-09-09T09:21:13.720Z,18.70
2018-09-09T09:23:42.957Z,18.70
2018-09-09T09:26:11.943Z,18.80
2018-09-09T09:28:41.026Z,18.80
2018-09-09T09:31:10.253Z,18.90
2018-09-09T09:33:39.440Z,19.00
2018-09-09T09:36:08.698Z,19.00
2018-09-09T09:38:37.806Z,19.10
2018-09-09T09:41:07.125Z,19.20
2018-09-09T09:43:36.002Z,19.20
2018-09-09T09:46:05.196Z,19.20
2018-09-09T09:48:34.073Z,19.30
2018-09-09T09:51:03.380Z,19.40
2018-09-09T09:53:32.487Z,19.40
2018-09-09T09:56:01.361Z,19.50
2018-09-09T09:58:30.177Z,19.60
2018-09-09T10:00:59.703Z,19.60
2018-09-09T10:03:29.029Z,19.70
2018-09-09T10:05:58.071Z,19.70
2018-09-09T10:08:27.016Z,19.70
2018-09-09T10:10:55.849Z,19.80
2018-09-09T10:13:24.696Z,19.90
2018-09-09T10:15:53.520Z,20.00
2018-09-09T10:18:22.530Z,20.00
2018-09-09T10:20:51.343Z,20.10
2018-09-09T10:23:20.483Z,20.20
2018-09-09T10:25:49.603Z,20.30
2018-09-09T10:28:18.684Z,20.40
2018-09-09T10:30:47.758Z,20.40
2018-09-09T10:33:16.865Z,20.50
2018-09-09T10:35:45.965Z,20.60
2018-09-09T10:38:14.937Z,20.60
2018-09-09T10:40:44.099Z,20.70
2018-09-09T10:43:12.969Z,20.80
2018-09-09T10:45:42.160Z,20.80
2018-09-09T10:48:11.152Z,20.90
2018-09-09T10:50:40.339Z,21.00
2018-09-09T10:53:09.537Z,21.10
2018-09-09T10:55:38.414Z,21.20
2018-09-09T10:58:07.522Z,21.30
2018-09-09T11:00:36.687Z,21.40
2018-09-09T11:03:05.889Z,21.50
2018-09-09T11:05:35.013Z,21.60
2018-09-09T11:08:04.015Z,21.70
2018-09-09T11:10:33.199Z,21.70
2018-09-09T11:13:02.092Z,21.90
2018-09-09T11:15:31.165Z,22.00
2018-09-09T11:18:00.254Z,22.10
2018-09-09T11:20:31.058Z,22.20
2018-09-09T11:22:59.903Z,22.30
2018-09-09T11:25:28.964Z,22.50
2018-09-09T11:27:58.008Z,22.60
2018-09-09T11:30:27.376Z,22.70
2018-09-09T11:32:56.348Z,22.80
2018-09-09T11:35:25.561Z,22.90
2018-09-09T11:37:54.795Z,23.00
2018-09-09T11:40:23.841Z,23.20
2018-09-09T11:42:53.043Z,23.30
2018-09-09T11:45:22.234Z,23.40
2018-09-09T11:47:51.086Z,23.60
2018-09-09T11:50:20.213Z,23.80
2018-09-09T11:52:49.315Z,23.80
2018-09-09T11:55:18.432Z,23.90
2018-09-09T11:57:47.606Z,24.10
2018-09-09T12:00:16.676Z,24.20
2018-09-09T12:02:45.801Z,24.30
2018-09-09T12:05:14.910Z,24.50
2018-09-09T12:07:44.166Z,24.50
2018-09-09T12:10:13.382Z,24.60
2018-09-09T12:12:42.503Z,24.70
2018-09-09T12:15:11.578Z,24.90
2018-09-09T12:17:40.770Z,25.00
2018-09-09T12:20:10.000Z,25.10
2018-09-09T12:22:38.959Z,25.30
2018-09-09T12:25:08.156Z,25.40
2018-09-09T12:27:37.254Z,25.50
2018-09-09T12:30:06.773Z,25.60
2018-09-09T12:32:35.916Z,25.70
2018-09-09T12:35:05.212Z,25.80
2018-09-09T12:37:34.393Z,25.90
2018-09-09T12:40:03.544Z,26.00
2018-09-09T12:42:32.663Z,26.20
2018-09-09T12:45:06.855Z,26.20
2018-09-09T12:47:41.004Z,26.30
2018-09-09T12:50:10.008Z,26.50
2018-09-09T12:52:39.175Z,26.60
2018-09-09T12:55:08.005Z,26.60
2018-09-09T12:57:37.061Z,26.70
2018-09-09T13:00:06.455Z,26.90
2018-09-09T13:02:35.257Z,27.00
2018-09-09T13:05:04.147Z,27.00
2018-09-09T13:07:32.964Z,27.10
2018-09-09T13:10:01.769Z,27.10
2018-09-09T13:12:34.753Z,27.10
2018-09-09T13:15:03.580Z,27.20
2018-09-09T13:17:32.397Z,27.20
2018-09-09T13:20:01.207Z,27.30
2018-09-09T13:22:30.001Z,27.40
2018-09-09T13:24:58.840Z,27.40
2018-09-09T13:27:27.885Z,27.50
2018-09-09T13:29:56.659Z,27.50
2018-09-09T13:32:25.436Z,27.70
2018-09-09T13:34:54.212Z,27.70
2018-09-09T13:37:22.993Z,27.70
2018-09-09T13:39:51.792Z,27.60
2018-09-09T13:42:20.606Z,27.70
2018-09-09T13:44:49.387Z,27.70
2018-09-09T13:47:18.232Z,27.70
2018-09-09T13:49:47.667Z,27.70
2018-09-09T13:52:16.469Z,27.80
2018-09-09T13:54:45.232Z,27.80
2018-09-09T13:57:14.018Z,27.80
2018-09-09T13:59:43.416Z,27.80
2018-09-09T14:02:12.200Z,27.80
2018-09-09T14:04:40.987Z,27.90
2018-09-09T14:07:09.794Z,27.90
2018-09-09T14:09:38.621Z,27.90
2018-09-09T14:12:07.562Z,27.90
2018-09-09T14:14:36.385Z,27.90
2018-09-09T14:17:05.221Z,27.90
2018-09-09T14:19:34.049Z,27.90
2018-09-09T14:22:02.938Z,27.90
2018-09-09T14:24:31.743Z,27.90
2018-09-09T14:27:00.559Z,27.90
2018-09-09T14:29:29.344Z,27.90
2018-09-09T14:31:58.145Z,27.90
2018-09-09T14:34:26.977Z,28.00
2018-09-09T14:36:55.687Z,28.00
2018-09-09T14:39:24.492Z,28.00
2018-09-09T14:41:53.300Z,28.00
2018-09-09T14:44:22.149Z,28.00
2018-09-09T14:46:51.046Z,28.00
2018-09-09T14:49:19.940Z,28.00
2018-09-09T14:51:48.793Z,28.00
2018-09-09T14:54:17.578Z,28.00
2018-09-09T14:56:46.388Z,28.00
2018-09-09T14:59:15.211Z,28.00
2018-09-09T15:01:44.084Z,28.00
2018-09-09T15:04:12.917Z,28.10
2018-09-09T15:06:41.770Z,28.10
2018-09-09T15:09:11.911Z,28.20
2018-09-09T15:11:41.008Z,28.20
2018-09-09T15:14:10.076Z,28.30
2018-09-09T15:16:39.038Z,28.30
2018-09-09T15:19:07.864Z,28.40
2018-09-09T15:21:36.720Z,28.40
2018-09-09T15:24:05.536Z,28.50
2018-09-09T15:26:34.404Z,28.50
2018-09-09T15:29:03.263Z,28.60
2018-09-09T15:31:32.098Z,28.60
2018-09-09T15:34:00.936Z,28.70
2018-09-09T15:36:29.755Z,28.60
2018-09-09T15:38:58.568Z,28.70
2018-09-09T15:41:29.743Z,28.70
2018-09-09T15:43:58.653Z,28.70
2018-09-09T15:46:27.487Z,28.70
2018-09-09T15:48:56.294Z,28.70
2018-09-09T15:51:25.132Z,28.70
2018-09-09T15:53:53.965Z,28.70
2018-09-09T15:56:22.757Z,28.70
2018-09-09T15:58:51.639Z,28.70
2018-09-09T16:01:20.445Z,28.80
2018-09-09T16:03:49.235Z,28.70
2018-09-09T16:06:18.034Z,28.70
2018-09-09T16:08:46.823Z,28.70
2018-09-09T16:11:15.628Z,28.70
2018-09-09T16:13:44.469Z,28.60
2018-09-09T16:16:13.350Z,28.60
2018-09-09T16:18:42.421Z,28.60
2018-09-09T16:21:12.057Z,28.50
2018-09-09T16:23:40.903Z,28.50
2018-09-09T16:26:09.696Z,28.40
2018-09-09T16:28:38.475Z,28.40
2018-09-09T16:31:07.303Z,28.40
2018-09-09T16:33:36.150Z,28.30
2018-09-09T16:36:05.065Z,28.30
2018-09-09T16:38:33.864Z,28.30
2018-09-09T16:41:02.653Z,28.20
2018-09-09T16:43:31.459Z,28.20
2018-09-09T16:46:00.306Z,28.10
2018-09-09T16:48:29.159Z,28.10
2018-09-09T16:50:57.965Z,28.00
2018-09-09T16:53:26.740Z,27.90
2018-09-09T16:55:55.592Z,27.90
2018-09-09T16:58:24.410Z,27.80
2018-09-09T17:00:53.293Z,27.70
2018-09-09T17:03:22.060Z,27.70
2018-09-09T17:05:50.877Z,27.60
2018-09-09T17:08:19.700Z,27.50
2018-09-09T17:10:48.493Z,27.40
2018-09-09T17:13:17.328Z,27.40
2018-09-09T17:15:46.119Z,27.30
2018-09-09T17:18:14.971Z,27.30
2018-09-09T17:20:43.769Z,27.20
2018-09-09T17:23:12.539Z,27.20
2018-09-09T17:25:41.351Z,27.10
2018-09-09T17:28:10.277Z,27.00
2018-09-09T17:30:39.104Z,27.00
2018-09-09T17:33:08.194Z,26.90
2018-09-09T17:35:37.182Z,26.80
2018-09-09T17:38:06.101Z,26.80
2018-09-09T17:40:34.973Z,26.70
2018-09-09T17:43:03.840Z,26.70
2018-09-09T17:45:32.681Z,26.60
2018-09-09T17:48:01.517Z,26.50
2018-09-09T17:50:30.386Z,26.50
2018-09-09T17:52:59.288Z,26.40
2018-09-09T17:55:28.154Z,26.40
2018-09-09T17:57:57.131Z,26.30
2018-09-09T18:00:26.096Z,26.30
2018-09-09T18:02:55.244Z,26.20
2018-09-09T18:05:24.070Z,26.10
2018-09-09T18:07:52.932Z,26.10
2018-09-09T18:10:21.774Z,26.00
2018-09-09T18:12:50.608Z,26.00
2018-09-09T18:15:19.463Z,25.90
2018-09-09T18:17:48.469Z,25.90
2018-09-09T18:20:17.348Z,25.80
2018-09-09T18:22:46.212Z,25.70
2018-09-09T18:25:15.022Z,25.70
2018-09-09T18:27:43.961Z,25.60
2018-09-09T18:30:12.766Z,25.60
2018-09-09T18:32:41.776Z,25.50
2018-09-09T18:35:10.637Z,25.50
2018-09-09T18:37:39.501Z,25.40
2018-09-09T18:40:08.392Z,25.40
2018-09-09T18:42:37.448Z,25.40
2018-09-09T18:45:08.079Z,25.30
2018-09-09T18:47:36.932Z,25.20
2018-09-09T18:50:05.978Z,25.20
2018-09-09T18:52:34.812Z,25.10
2018-09-09T18:55:03.639Z,25.10
2018-09-09T18:57:32.472Z,25.10
2018-09-09T19:00:01.452Z,25.00
2018-09-09T19:02:30.294Z,25.00
2018-09-09T19:04:59.121Z,25.00
2018-09-09T19:07:27.975Z,24.90
2018-09-09T19:09:56.959Z,24.90
2018-09-09T19:12:25.758Z,24.90
2018-09-09T19:14:54.588Z,24.80
2018-09-09T19:17:23.415Z,24.70
2018-09-09T19:19:52.238Z,24.50
2018-09-09T19:22:20.999Z,24.50
2018-09-09T19:24:49.774Z,24.60
2018-09-09T19:27:18.632Z,24.60
2018-09-09T19:29:47.441Z,24.50
2018-09-09T19:32:16.233Z,24.40
2018-09-09T19:34:45.073Z,24.30
2018-09-09T19:37:13.893Z,24.30
2018-09-09T19:39:42.724Z,24.30
2018-09-09T19:44:42.419Z,24.10
2018-09-09T19:47:11.251Z,23.70
2018-09-09T19:49:40.126Z,23.70
2018-09-09T19:52:09.049Z,23.80
2018-09-09T19:54:37.834Z,23.80
2018-09-09T19:57:06.676Z,23.80
2018-09-09T19:59:35.581Z,23.80
2018-09-09T20:02:04.482Z,23.60
2018-09-09T20:04:33.260Z,23.40
2018-09-09T20:07:02.075Z,23.30
2018-09-09T20:09:30.907Z,23.30
2018-09-09T20:12:00.652Z,23.30
2018-09-09T20:14:29.493Z,23.30
2018-09-09T20:16:58.504Z,23.30
2018-09-09T20:19:27.383Z,23.30
2018-09-09T20:21:56.198Z,23.30
2018-09-09T20:24:24.988Z,23.20
2018-09-09T20:26:53.846Z,23.10
2018-09-09T20:29:22.653Z,23.00
2018-09-09T20:31:51.464Z,23.00
2018-09-09T20:34:20.296Z,23.10
2018-09-09T20:36:49.084Z,23.10
2018-09-09T20:39:17.880Z,23.00
2018-09-09T20:41:46.686Z,23.00
2018-09-09T20:44:15.468Z,23.00
2018-09-09T20:46:44.244Z,23.00
2018-09-09T20:49:13.025Z,23.00
2018-09-09T20:51:41.894Z,22.90
2018-09-09T20:54:10.701Z,22.90
2018-09-09T20:56:39.524Z,22.90
2018-09-09T20:59:08.353Z,22.90
2018-09-09T21:01:37.154Z,22.80
2018-09-09T21:04:06.032Z,22.70
2018-09-09T21:06:34.853Z,22.70
2018-09-09T21:09:04.524Z,22.60
2018-09-09T21:11:33.351Z,22.50
2018-09-09T21:14:02.170Z,22.50
2018-09-09T21:16:31.050Z,22.50
2018-09-09T21:18:59.850Z,22.40
2018-09-09T21:21:28.688Z,22.40
2018-09-09T21:23:58.056Z,22.40
2018-09-09T21:26:27.280Z,22.30
2018-09-09T21:28:56.368Z,22.30
2018-09-09T21:31:25.164Z,22.30
2018-09-09T21:33:53.949Z,22.20
2018-09-09T21:36:22.784Z,22.20
2018-09-09T21:38:51.656Z,22.20
2018-09-09T21:41:20.534Z,22.20
2018-09-09T21:43:49.417Z,22.20
2018-09-09T21:46:18.198Z,22.20
2018-09-09T21:48:47.046Z,22.10
2018-09-09T21:51:15.872Z,22.00
2018-09-09T21:53:44.728Z,22.00
2018-09-09T21:56:13.511Z,21.90
2018-09-09T21:58:42.328Z,21.80
2018-09-09T22:01:16.300Z,21.80
2018-09-09T22:03:45.102Z,21.80
2018-09-09T22:06:13.931Z,21.70
2018-09-09T22:08:42.721Z,21.70
2018-09-09T22:11:11.564Z,21.70
2018-09-09T22:13:40.417Z,21.70
2018-09-09T22:16:09.197Z,21.60
2018-09-09T22:18:38.089Z,21.60
2018-09-09T22:21:06.917Z,21.50
2018-09-09T22:23:36.043Z,21.30
2018-09-09T22:26:04.863Z,21.30
2018-09-09T22:28:33.704Z,21.30
2018-09-09T22:31:02.538Z,21.40
2018-09-09T22:33:31.347Z,21.20
2018-09-09T22:36:00.149Z,21.20
2018-09-09T22:38:28.987Z,21.20
2018-09-09T22:40:57.751Z,21.00
2018-09-09T22:43:26.583Z,20.90
2018-09-09T22:45:58.345Z,20.90
2018-09-09T22:48:27.596Z,21.00
2018-09-09T22:50:56.663Z,21.10
2018-09-09T22:53:25.518Z,21.20
2018-09-09T22:55:54.287Z,21.20
2018-09-09T22:58:23.094Z,21.20
2018-09-09T23:00:52.233Z,21.10
2018-09-09T23:03:21.131Z,21.10
2018-09-09T23:05:49.944Z,21.10
2018-09-09T23:08:18.751Z,21.00
2018-09-09T23:10:47.578Z,21.10
2018-09-09T23:13:16.452Z,21.00
2018-09-09T23:15:45.304Z,20.90
2018-09-09T23:18:14.089Z,20.80
2018-09-09T23:20:42.900Z,20.80
2018-09-09T23:23:11.713Z,20.80
2018-09-09T23:25:40.553Z,20.80
2018-09-09T23:28:09.419Z,20.70
2018-09-09T23:30:38.234Z,20.70
2018-09-09T23:33:07.036Z,20.70
2018-09-09T23:35:35.836Z,20.70
2018-09-09T23:38:04.667Z,20.60
2018-09-09T23:40:33.478Z,20.60
2018-09-09T23:43:02.244Z,20.50
2018-09-09T23:45:31.095Z,20.40
2018-09-09T23:47:59.884Z,20.40
2018-09-09T23:50:29.428Z,20.40
2018-09-09T23:52:58.209Z,20.40
2018-09-09T23:55:27.003Z,20.30
2018-09-09T23:57:55.815Z,20.30
